Time;durP1;ratioP1;P1;durP2;ratioP2;P2;SDS_P1;SDS_P2;PMS_P1;PMS_P2;Temp;Humidity;BMP_temperature;BMP_pressure;BME280_temperature;BME280_humidity;BME280_pressure;Samples;Min_cycle;Max_cycle;Signal;HPM_P1;HPM_P2
2022/06/08 00:00:04;;;;;;;;;;;;;;;13.37;92.88;96686.66;30001;982;1864;-60
2022/06/08 00:00:38;;;;;;;;;;;;;;;13.37;92.41;96692.09;30001;983;1868;-60
2022/06/08 00:01:10;;;;;;;;;;;;;;;13.38;92.39;96688.25;30001;983;1876;-60
2022/06/08 00:01:44;;;;;;;;;;;;;;;13.36;92.33;96682.31;30001;983;1877;-59
2022/06/08 00:02:15;;;;;;;;;;;;;;;13.35;92.29;96688.91;30001;983;1876;-60
2022/06/08 00:02:48;;;;;;;;;;;;;;;13.35;92.22;96685.37;30001;983;1864;-60
2022/06/08 00:03:39;;;;;;;;;;;;;;;13.34;92.21;96687.28;30001;983;1868;-60
2022/06/08 00:04:15;;;;;;;;;;;;;;;13.35;92.48;96679.91;30001;983;1859;-59
2022/06/08 00:04:46;;;;;;;;;;;;;;;13.34;92.38;96687.28;30001;983;1868;-60
2022/06/08 00:05:19;;;;;;;;;;;;;;;13.34;92.76;96687.28;30001;983;1782;-60
2022/06/08 00:05:50;;;;;;;;;;;;;;;13.35;92.59;96686.16;30001;982;1877;-60
2022/06/08 00:06:21;;;;;;;;;;;;;;;13.35;92.62;96683.44;30001;982;1877;-60
2022/06/08 00:06:53;;;;;;;;;;;;;;;13.35;92.16;96686.16;30001;982;1877;-59
2022/06/08 00:07:25;;;;;;;;;;;;;;;13.36;92.25;96687.78;30001;982;1877;-53
2022/06/08 00:07:56;;;;;;;;;;;;;;;13.36;92.07;96687.78;30001;982;1877;-61
2022/06/08 00:08:26;;;;;;;;;;;;;;;13.35;92.35;96683.44;30001;983;1876;-60
2022/06/08 00:08:57;;;;;;;;;;;;;;;13.36;92.12;96686.97;30001;983;1877;-59
2022/06/08 00:09:28;;;;;;;;;;;;;;;13.35;92.13;96686.16;30001;983;1863;-61
2022/06/08 00:09:59;;;;;;;;;;;;;;;13.33;92.29;96682.97;30001;983;1868;-61
2022/06/08 00:10:30;;;;;;;;;;;;;;;13.32;91.77;96686.78;30001;983;1877;-60
2022/06/08 00:11:01;;;;;;;;;;;;;;;13.32;91.85;96691.44;30001;983;1877;-60
2022/06/08 00:11:32;;;;;;;;;;;;;;;13.33;91.85;96682.97;30001;962;1898;-60
2022/06/08 00:12:04;;;;;;;;;;;;;;;13.33;91.64;96676.69;30001;983;1877;-53
2022/06/08 00:12:35;;;;;;;;;;;;;;;13.33;91.35;96688.41;30001;983;1877;-53
2022/06/08 00:13:09;;;;;;;;;;;;;;;13.33;91.56;96680.22;30001;983;1877;-60
2022/06/08 00:13:42;;;;;;;;;;;;;;;13.33;91.49;96682.97;30001;982;1877;-60
2022/06/08 00:14:17;;;;;;;;;;;;;;;13.33;91.81;96685.69;30001;982;1864;-61
2022/06/08 00:14:50;;;;;;;;;;;;;;;13.33;91.57;96682.97;30001;982;1855;-60
2022/06/08 00:15:24;;;;;;;;;;;;;;;13.34;91.42;96679.13;30001;982;1877;-60
2022/06/08 00:15:55;;;;;;;;;;;;;;;13.34;91.88;96681.03;30001;983;1876;-61
2022/06/08 00:16:26;;;;;;;;;;;;;;;13.33;91.64;96682.97;30001;983;1876;-60
2022/06/08 00:16:57;;;;;;;;;;;;;;;13.33;91.77;96679.44;30001;986;1876;-53
2022/06/08 00:17:29;;;;;;;;;;;;;;;13.32;92.08;96678.63;30001;983;1876;-59
2022/06/08 00:18:01;;;;;;;;;;;;;;;13.33;92.31;96682.16;30001;983;1877;-60
2022/06/08 00:18:32;;;;;;;;;;;;;;;13.32;92.53;96675.09;30001;983;1877;-61
2022/06/08 00:19:05;;;;;;;;;;;;;;;13.31;92.61;96681.66;30001;983;1863;-60
2022/06/08 00:19:35;;;;;;;;;;;;;;;13.29;93.11;96681.16;30001;983;1868;-60
2022/06/08 00:20:08;;;;;;;;;;;;;;;13.27;93.31;96678.75;30001;983;1877;-60
2022/06/08 00:20:39;;;;;;;;;;;;;;;13.27;93.18;96672.50;30001;983;1877;-61
2022/06/08 00:21:11;;;;;;;;;;;;;;;13.27;93.09;96681.47;30001;982;1877;-61
2022/06/08 00:21:42;;;;;;;;;;;;;;;13.26;92.77;96671.69;30001;982;1877;-59
2022/06/08 00:22:12;;;;;;;;;;;;;;;13.26;92.66;96677.16;30001;982;1877;-60
2022/06/08 00:22:43;;;;;;;;;;;;;;;13.26;92.84;96671.69;30001;982;1877;-60
2022/06/08 00:23:14;;;;;;;;;;;;;;;13.28;92.55;96672.19;30001;983;1876;-53
2022/06/08 00:23:46;;;;;;;;;;;;;;;13.30;92.57;96678.13;30001;983;1863;-60
2022/06/08 00:24:19;;;;;;;;;;;;;;;13.29;92.19;96671.06;30001;983;1868;-60
2022/06/08 00:24:50;;;;;;;;;;;;;;;13.31;91.79;96668.03;30001;983;1876;-62
2022/06/08 00:25:20;;;;;;;;;;;;;;;13.30;91.80;96672.69;30001;964;1896;-61
2022/06/08 00:25:51;;;;;;;;;;;;;;;13.31;91.60;96673.47;30001;983;1877;-60
2022/06/08 00:26:24;;;;;;;;;;;;;;;13.32;91.61;96675.91;30001;983;1864;-61
2022/06/08 00:26:55;;;;;;;;;;;;;;;13.33;91.74;96672.06;30001;983;1868;-53
2022/06/08 00:27:26;;;;;;;;;;;;;;;13.35;91.99;96669.00;30001;983;1877;-60
2022/06/08 00:27:57;;;;;;;;;;;;;;;13.35;91.80;96669.81;30001;983;1877;-52
2022/06/08 00:28:28;;;;;;;;;;;;;;;13.37;91.85;96666.78;30001;982;1877;-53
2022/06/08 00:28:59;;;;;;;;;;;;;;;13.37;92.15;96666.78;30001;982;1864;-62
2022/06/08 00:29:29;;;;;;;;;;;;;;;13.35;92.07;96672.53;30001;982;1868;-59
2022/06/08 00:30:00;;;;;;;;;;;;;;;13.36;92.13;96674.16;30001;982;1864;-59
2022/06/08 00:30:32;;;;;;;;;;;;;;;13.34;91.81;96665.47;30001;982;1868;-60
2022/06/08 00:31:03;;;;;;;;;;;;;;;13.35;92.32;96669.81;30001;983;1877;-60
2022/06/08 00:31:34;;;;;;;;;;;;;;;13.34;92.10;96662.75;30001;983;1876;-53
2022/06/08 00:32:06;;;;;;;;;;;;;;;13.34;92.52;96665.47;30001;983;1877;-60
2022/06/08 00:32:37;;;;;;;;;;;;;;;13.34;92.64;96662.75;30001;983;1876;-61
2022/06/08 00:33:08;;;;;;;;;;;;;;;13.34;92.42;96668.22;30001;983;1876;-62
2022/06/08 00:33:39;;;;;;;;;;;;;;;13.34;92.32;96662.75;30001;983;1877;-60
2022/06/08 00:34:10;;;;;;;;;;;;;;;13.34;92.06;96668.22;30001;983;1877;-60
2022/06/08 00:34:40;;;;;;;;;;;;;;;13.35;92.02;96658.12;30001;983;1877;-60
2022/06/08 00:35:11;;;;;;;;;;;;;;;13.35;92.15;96663.56;30001;982;1864;-60
2022/06/08 00:35:42;;;;;;;;;;;;;;;13.34;92.47;96662.75;30001;982;1868;-61
2022/06/08 00:36:14;;;;;;;;;;;;;;;13.35;92.04;96669.00;30001;982;1877;-61
2022/06/08 00:36:44;;;;;;;;;;;;;;;13.34;91.87;96665.47;30001;982;1877;-60
2022/06/08 00:37:15;;;;;;;;;;;;;;;13.34;91.93;96668.22;30001;982;1864;-53
2022/06/08 00:37:46;;;;;;;;;;;;;;;13.32;91.89;96665.00;30001;982;1869;-60
2022/06/08 00:38:17;;;;;;;;;;;;;;;13.33;91.79;96661.16;30001;983;1863;-59
2022/06/08 00:38:48;;;;;;;;;;;;;;;13.33;91.65;96661.16;30001;983;1868;-52
2022/06/08 00:39:18;;;;;;;;;;;;;;;13.33;91.26;96661.16;30001;983;1877;-60
2022/06/08 00:39:49;;;;;;;;;;;;;;;13.33;91.41;96666.59;30001;983;1876;-60
2022/06/08 00:40:22;;;;;;;;;;;;;;;13.34;91.22;96665.47;30001;983;1876;-61
2022/06/08 00:41:14;;;;;;;;;;;;;;;13.33;91.32;96655.72;30001;983;1877;-61
2022/06/08 00:41:47;;;;;;;;;;;;;;;13.34;91.63;96660.03;30001;983;1868;-60
2022/06/08 00:42:19;;;;;;;;;;;;;;;13.35;91.37;96666.28;30001;983;1864;-60
2022/06/08 00:42:51;;;;;;;;;;;;;;;13.33;91.47;96658.44;30001;982;1868;-61
2022/06/08 00:43:22;;;;;;;;;;;;;;;13.33;91.10;96661.16;30001;982;1877;-61
2022/06/08 00:43:53;;;;;;;;;;;;;;;13.31;91.02;96663.37;30001;982;1877;-60
2022/06/08 00:44:44;;;;;;;;;;;;;;;13.30;91.23;96656.34;30001;982;1864;-60
2022/06/08 00:45:17;;;;;;;;;;;;;;;13.29;91.29;96653.91;30001;982;1869;-61
2022/06/08 00:45:48;;;;;;;;;;;;;;;13.27;91.51;96651.50;30001;982;1877;-59
2022/06/08 00:46:20;;;;;;;;;;;;;;;13.29;91.63;96656.66;30001;983;1876;-60
2022/06/08 00:46:52;;;;;;;;;;;;;;;13.29;91.48;96654.72;30001;983;1876;-53
2022/06/08 00:47:27;;;;;;;;;;;;;;;13.28;90.97;96650.41;30001;983;1876;-61
2022/06/08 00:48:00;;;;;;;;;;;;;;;13.26;91.72;96649.91;30001;983;1876;-62
2022/06/08 00:48:34;;;;;;;;;;;;;;;13.24;91.55;96646.69;30001;983;1877;-63
2022/06/08 00:49:19;;;;;;;;;;;;;;;13.24;91.38;96646.69;30001;983;1877;-60
2022/06/08 00:49:52;;;;;;;;;;;;;;;13.22;90.69;96651.66;30001;983;1864;-58
2022/06/08 00:50:35;;;;;;;;;;;;;;;13.21;91.08;96658.22;30001;982;1868;-60
2022/06/08 00:51:06;;;;;;;;;;;;;;;13.22;91.22;96648.94;30001;982;1877;-61
2022/06/08 00:51:38;;;;;;;;;;;;;;;13.21;91.26;96641.88;30001;982;1877;-61
2022/06/08 00:52:10;;;;;;;;;;;;;;;13.21;91.02;96646.50;30001;982;1877;-60
2022/06/08 00:52:43;;;;;;;;;;;;;;;13.20;91.35;96650.34;30001;982;1877;-59
2022/06/08 00:53:16;;;;;;;;;;;;;;;13.19;91.57;96649.56;30001;982;1877;-60
2022/06/08 00:53:54;;;;;;;;;;;;;;;13.19;91.81;96649.56;30001;983;1876;-62
2022/06/08 00:54:27;;;;;;;;;;;;;;;13.19;91.62;96644.09;30001;983;1863;-60
2022/06/08 00:55:00;;;;;;;;;;;;;;;13.19;91.45;96649.56;30001;983;1868;-60
2022/06/08 00:55:33;;;;;;;;;;;;;;;13.19;91.56;96660.44;30001;983;1876;-59
2022/06/08 00:56:06;;;;;;;;;;;;;;;13.19;91.76;96644.09;30001;983;1877;-60
2022/06/08 00:56:41;;;;;;;;;;;;;;;13.18;91.47;96650.66;30001;983;1877;-61
2022/06/08 00:57:17;;;;;;;;;;;;;;;13.17;91.82;96657.25;30001;983;1776;-60
2022/06/08 00:58:03;;;;;;;;;;;;;;;13.16;91.66;96652.12;30001;982;1864;-60
2022/06/08 00:58:37;;;;;;;;;;;;;;;13.15;91.77;96654.03;30001;982;1868;-61
2022/06/08 00:59:09;;;;;;;;;;;;;;;13.15;91.75;96651.28;30001;982;1877;-61
2022/06/08 00:59:41;;;;;;;;;;;;;;;13.13;91.85;96644.56;30001;982;1877;-62
2022/06/08 01:00:17;;;;;;;;;;;;;;;13.11;91.80;96647.59;30001;982;1878;-61
2022/06/08 01:00:48;;;;;;;;;;;;;;;13.09;92.35;96649.81;30001;982;1877;-60
2022/06/08 01:01:19;;;;;;;;;;;;;;;13.08;91.94;96653.66;30001;983;1863;-60
2022/06/08 01:01:50;;;;;;;;;;;;;;;13.08;92.12;96649.03;30001;983;1868;-61
2022/06/08 01:02:21;;;;;;;;;;;;;;;13.08;92.02;96649.03;30001;983;1876;-61
2022/06/08 01:02:53;;;;;;;;;;;;;;;13.08;91.70;96642.78;30001;983;1876;-61
2022/06/08 01:03:23;;;;;;;;;;;;;;;13.07;91.36;96650.13;30001;983;1876;-61
2022/06/08 01:04:26;;;;;;;;;;;;;;;13.07;91.60;96646.63;30001;983;1877;-60
2022/06/08 01:05:16;;;;;;;;;;;;;;;13.07;91.93;96646.63;30001;983;1873;-60
2022/06/08 01:05:49;;;;;;;;;;;;;;;13.06;91.84;96651.25;30001;986;1872;-61
2022/06/08 01:06:22;;;;;;;;;;;;;;;13.07;91.77;96647.41;30001;982;1864;-60
2022/06/08 01:06:55;;;;;;;;;;;;;;;13.07;92.25;96646.63;30001;982;1868;-60
2022/06/08 01:07:25;;;;;;;;;;;;;;;13.06;91.92;96642.28;30001;982;1877;-60
2022/06/08 01:07:58;;;;;;;;;;;;;;;13.07;92.12;96641.97;30001;983;1876;-61
2022/06/08 01:08:38;;;;;;;;;;;;;;;13.08;92.25;96637.31;30001;983;1877;-61
2022/06/08 01:09:24;;;;;;;;;;;;;;;13.07;92.26;96641.16;30001;983;1877;-62
2022/06/08 01:09:55;;;;;;;;;;;;;;;13.08;92.08;96642.78;30001;983;1877;-60
2022/06/08 01:10:34;;;;;;;;;;;;;;;13.08;92.27;96640.06;30001;983;1877;-61
2022/06/08 01:11:07;;;;;;;;;;;;;;;13.08;91.96;96640.06;30001;983;1877;-60
2022/06/08 01:11:41;;;;;;;;;;;;;;;13.07;91.92;96639.25;30001;983;1864;-61
2022/06/08 01:12:23;;;;;;;;;;;;;;;13.08;92.10;96645.50;30001;983;1868;-61
2022/06/08 01:12:54;;;;;;;;;;;;;;;13.08;92.32;96642.78;30001;982;1864;-61
2022/06/08 01:13:28;;;;;;;;;;;;;;;13.08;92.23;96640.84;30001;982;1868;-61
2022/06/08 01:14:02;;;;;;;;;;;;;;;13.09;92.19;96637.00;30001;982;1877;-62
2022/06/08 01:14:34;;;;;;;;;;;;;;;13.09;92.16;96638.94;30001;982;1877;-62
2022/06/08 01:15:05;;;;;;;;;;;;;;;13.09;92.42;96641.66;30001;982;1877;-62
2022/06/08 01:15:37;;;;;;;;;;;;;;;13.09;92.35;96644.38;30001;983;1863;-61
2022/06/08 01:16:09;;;;;;;;;;;;;;;13.09;92.58;96634.28;30001;983;1868;-61
2022/06/08 01:16:43;;;;;;;;;;;;;;;13.11;92.44;96636.69;30001;983;1877;-61
2022/06/08 01:17:15;;;;;;;;;;;;;;;13.10;91.85;96640.53;30001;983;1877;-60
2022/06/08 01:17:46;;;;;;;;;;;;;;;13.10;91.73;96640.53;30001;983;1877;-61
2022/06/08 01:18:18;;;;;;;;;;;;;;;13.10;91.64;96643.25;30001;983;1877;-52
2022/06/08 01:18:48;;;;;;;;;;;;;;;13.11;91.68;96635.91;30001;983;1877;-60
2022/06/08 01:19:19;;;;;;;;;;;;;;;13.09;91.62;96628.84;30001;983;1877;-61
2022/06/08 01:19:50;;;;;;;;;;;;;;;13.10;91.05;96640.53;30001;983;1877;-62
2022/06/08 01:20:21;;;;;;;;;;;;;;;13.09;91.31;96633.50;30001;982;1877;-62
2022/06/08 01:20:54;;;;;;;;;;;;;;;13.08;90.98;96637.31;30001;982;1864;-61
2022/06/08 01:21:45;;;;;;;;;;;;;;;13.09;90.91;96633.50;30001;982;1868;-61
2022/06/08 01:22:18;;;;;;;;;;;;;;;13.09;91.05;96634.28;30001;982;1873;-62
2022/06/08 01:22:49;;;;;;;;;;;;;;;13.09;91.26;96631.56;30001;983;1876;-61
2022/06/08 01:23:20;;;;;;;;;;;;;;;13.11;91.28;96633.16;30001;983;1876;-61
2022/06/08 01:23:55;;;;;;;;;;;;;;;13.10;91.29;96632.37;30001;983;1877;-60
2022/06/08 01:24:27;;;;;;;;;;;;;;;13.08;90.98;96634.59;30001;983;1876;-61
2022/06/08 01:24:59;;;;;;;;;;;;;;;13.08;91.15;96629.97;30001;983;1877;-62
2022/06/08 01:25:38;;;;;;;;;;;;;;;13.06;91.19;96634.13;30001;983;1877;-61
2022/06/08 01:26:39;;;;;;;;;;;;;;;13.07;91.55;96630.28;30001;983;1864;-61
2022/06/08 01:27:30;;;;;;;;;;;;;;;13.05;91.26;96627.06;30001;983;1864;-61
2022/06/08 01:28:22;;;;;;;;;;;;;;;13.05;91.38;96627.06;30001;982;1872;-62
2022/06/08 01:29:29;;;;;;;;;;;;;;;13.03;90.98;96624.66;30001;982;1877;-61
2022/06/08 01:30:14;;;;;;;;;;;;;;;13.00;91.11;96619.03;30001;982;1873;-62
2022/06/08 01:30:52;;;;;;;;;;;;;;;12.98;90.96;96622.06;30001;983;1876;-62
2022/06/08 01:31:43;;;;;;;;;;;;;;;12.99;91.21;96622.88;30001;983;1863;-61
2022/06/08 01:32:36;;;;;;;;;;;;;;;13.00;91.35;96629.91;30001;983;1864;-62
2022/06/08 01:33:36;;;;;;;;;;;;;;;13.00;91.51;96625.28;30001;983;1766;-52
2022/06/08 01:34:11;;;;;;;;;;;;;;;12.99;91.59;96623.66;30001;983;1873;-61
2022/06/08 01:35:08;;;;;;;;;;;;;;;12.99;91.89;96628.31;30001;983;1877;-60
2022/06/08 01:35:58;;;;;;;;;;;;;;;12.98;91.63;96622.06;30001;982;1872;-63
2022/06/08 01:36:48;;;;;;;;;;;;;;;13.00;91.63;96625.28;30001;982;1860;-62
2022/06/08 01:37:35;;;;;;;;;;;;;;;13.00;90.96;96621.75;30001;982;1868;-63
2022/06/08 01:38:19;;;;;;;;;;;;;;;12.99;91.21;96622.88;30001;983;1876;-62
2022/06/08 01:39:00;;;;;;;;;;;;;;;12.99;90.89;96622.88;30001;983;1877;-62
2022/06/08 01:39:44;;;;;;;;;;;;;;;12.99;91.20;96625.59;30001;983;1876;-62
2022/06/08 01:40:35;;;;;;;;;;;;;;;12.99;91.19;96623.66;30001;983;1877;-61
2022/06/08 01:41:34;;;;;;;;;;;;;;;12.99;91.20;96629.12;30001;983;1872;-64
2022/06/08 01:42:25;;;;;;;;;;;;;;;12.99;90.98;96622.88;30001;982;1859;-61
2022/06/08 01:43:25;;;;;;;;;;;;;;;12.97;91.40;96619.66;30001;982;1864;-53
2022/06/08 01:44:15;;;;;;;;;;;;;;;12.96;91.12;96613.41;30001;982;1873;-62
2022/06/08 01:46:07;;;;;;;;;;;;;;;12.94;91.23;96604.75;30001;983;1876;-63
2022/06/08 01:46:42;;;;;;;;;;;;;;;12.95;91.29;96613.72;30001;983;1872;-62
2022/06/08 01:47:17;;;;;;;;;;;;;;;12.94;91.12;96615.63;30001;983;1864;-63
2022/06/08 01:48:08;;;;;;;;;;;;;;;12.95;91.34;96616.44;30001;983;1868;-61
2022/06/08 01:49:01;;;;;;;;;;;;;;;12.94;91.38;96614.81;30001;983;1872;-64
2022/06/08 01:49:45;;;;;;;;;;;;;;;12.94;91.36;96612.09;30001;983;1873;-62
2022/06/08 01:50:24;;;;;;;;;;;;;;;12.95;90.95;96611.00;30001;982;1877;-63
2022/06/08 01:51:12;;;;;;;;;;;;;;;12.95;91.07;96611.78;30001;982;1877;-63
2022/06/08 01:52:03;;;;;;;;;;;;;;;12.95;91.00;96614.53;30001;982;1869;-64
2022/06/08 01:53:00;;;;;;;;;;;;;;;12.95;90.53;96613.72;30001;982;1770;-62
2022/06/08 01:53:49;;;;;;;;;;;;;;;12.94;90.76;96607.47;30001;983;1850;-63
2022/06/08 01:54:33;;;;;;;;;;;;;;;12.92;90.62;96617.06;30001;983;1868;-61
2022/06/08 01:55:10;;;;;;;;;;;;;;;12.90;90.83;96616.56;30001;983;1877;-52
2022/06/08 01:56:01;;;;;;;;;;;;;;;12.89;90.91;96610.31;30001;983;1877;-64
2022/06/08 01:56:51;;;;;;;;;;;;;;;12.90;90.58;96608.41;30001;983;1872;-61
2022/06/08 01:57:54;;;;;;;;;;;;;;;12.89;90.76;96607.59;30001;982;1877;-63
2022/06/08 01:58:29;;;;;;;;;;;;;;;12.88;90.65;96606.00;30001;982;1872;-64
2022/06/08 01:59:20;;;;;;;;;;;;;;;12.90;90.47;96611.13;30001;982;1864;-63
2022/06/08 02:00:16;;;;;;;;;;;;;;;12.89;90.72;96617.69;30001;983;1863;-63
2022/06/08 02:00:52;;;;;;;;;;;;;;;12.87;90.62;96609.03;30001;983;1872;-65
2022/06/08 02:01:40;;;;;;;;;;;;;;;12.87;90.65;96609.03;30001;983;1876;-64
2022/06/08 02:02:25;;;;;;;;;;;;;;;12.87;90.92;96603.59;30001;983;1877;-64
2022/06/08 02:03:14;;;;;;;;;;;;;;;12.87;90.74;96609.03;30001;983;1876;-62
2022/06/08 02:04:05;;;;;;;;;;;;;;;12.88;90.51;96610.63;30001;983;1855;-63
2022/06/08 02:05:11;;;;;;;;;;;;;;;12.86;90.91;96605.50;30001;983;1864;-64
2022/06/08 02:05:53;;;;;;;;;;;;;;;12.87;90.82;96607.09;30001;982;1873;-64
2022/06/08 02:06:31;;;;;;;;;;;;;;;12.89;90.47;96606.78;30001;982;1877;-64
2022/06/08 02:07:27;;;;;;;;;;;;;;;12.90;90.54;96608.41;30001;982;1877;-64
2022/06/08 02:08:07;;;;;;;;;;;;;;;12.87;90.59;96603.59;30001;983;1859;-63
2022/06/08 02:09:01;;;;;;;;;;;;;;;12.87;90.59;96603.59;30001;983;1868;-61
2022/06/08 02:09:38;;;;;;;;;;;;;;;12.87;90.34;96598.12;30001;983;1873;-65
2022/06/08 02:10:16;;;;;;;;;;;;;;;12.85;90.82;96603.09;30001;983;1876;-64
2022/06/08 02:10:57;;;;;;;;;;;;;;;12.86;90.74;96604.69;30001;983;1863;-63
2022/06/08 02:11:37;;;;;;;;;;;;;;;12.86;90.79;96604.69;30001;983;1868;-63
2022/06/08 02:12:09;;;;;;;;;;;;;;;12.86;90.65;96605.50;30001;983;1877;-62
2022/06/08 02:12:44;;;;;;;;;;;;;;;12.86;90.93;96607.41;30001;982;1877;-62
2022/06/08 02:13:37;;;;;;;;;;;;;;;12.86;90.97;96601.97;30001;982;1877;-63
2022/06/08 02:14:20;;;;;;;;;;;;;;;12.86;91.12;96597.34;30001;982;1873;-62
2022/06/08 02:14:56;;;;;;;;;;;;;;;12.86;90.73;96602.78;30001;983;1876;-62
2022/06/08 02:15:29;;;;;;;;;;;;;;;12.87;90.60;96600.84;30001;983;1863;-62
2022/06/08 02:16:07;;;;;;;;;;;;;;;12.87;90.65;96598.12;30001;983;1868;-65
2022/06/08 02:16:41;;;;;;;;;;;;;;;12.87;90.60;96609.03;30001;983;1863;-63
2022/06/08 02:17:18;;;;;;;;;;;;;;;12.87;90.33;96598.12;30001;983;1868;-53
2022/06/08 02:17:51;;;;;;;;;;;;;;;12.84;90.60;96599.56;30001;983;1877;-61
2022/06/08 02:18:25;;;;;;;;;;;;;;;12.84;90.70;96599.56;30001;983;1877;-62
2022/06/08 02:18:59;;;;;;;;;;;;;;;12.86;90.75;96599.25;30001;982;1877;-65
2022/06/08 02:19:35;;;;;;;;;;;;;;;12.86;90.64;96597.34;30001;982;1864;-63
2022/06/08 02:20:28;;;;;;;;;;;;;;;12.86;90.52;96597.34;30001;982;1868;-64
2022/06/08 02:21:11;;;;;;;;;;;;;;;12.87;90.42;96603.59;30001;982;1873;-64
2022/06/08 02:21:51;;;;;;;;;;;;;;;12.88;90.19;96600.53;30001;982;1877;-63
2022/06/08 02:22:34;;;;;;;;;;;;;;;12.87;89.63;96595.41;30001;983;1876;-64
2022/06/08 02:23:08;;;;;;;;;;;;;;;12.86;89.66;96593.81;30001;983;1876;-64
2022/06/08 02:23:54;;;;;;;;;;;;;;;12.85;89.64;96589.47;30001;983;1877;-63
2022/06/08 02:24:28;;;;;;;;;;;;;;;12.83;90.20;96586.25;30001;983;1864;-63
2022/06/08 02:25:06;;;;;;;;;;;;;;;12.81;90.60;96591.25;30001;983;1868;-65
2022/06/08 02:25:42;;;;;;;;;;;;;;;12.81;90.49;96588.53;30001;983;1877;-63
2022/06/08 02:26:19;;;;;;;;;;;;;;;12.82;90.40;96587.41;30001;983;1864;-64
2022/06/08 02:27:01;;;;;;;;;;;;;;;12.82;90.43;96590.12;30001;982;1855;-63
2022/06/08 02:27:44;;;;;;;;;;;;;;;12.81;90.09;96588.53;30001;982;1877;-63
2022/06/08 02:28:19;;;;;;;;;;;;;;;12.81;90.34;96586.59;30001;982;1864;-64
2022/06/08 02:28:57;;;;;;;;;;;;;;;12.80;90.18;96586.91;30001;982;1868;-52
2022/06/08 02:29:53;;;;;;;;;;;;;;;12.80;90.27;96586.91;30001;983;1876;-52
2022/06/08 02:30:26;;;;;;;;;;;;;;;12.80;89.85;96586.91;30001;983;1872;-63
2022/06/08 02:31:34;;;;;;;;;;;;;;;12.79;90.00;96580.66;30001;983;1863;-63
2022/06/08 02:34:46;;;;;;;;;;;;;;;12.73;90.73;96577.28;30001;982;1877;-65
2022/06/08 02:35:19;;;;;;;;;;;;;;;12.72;90.71;96581.13;30001;982;1877;-64
2022/06/08 02:35:54;;;;;;;;;;;;;;;12.72;90.88;96581.13;30001;982;1877;-65
2022/06/08 02:36:35;;;;;;;;;;;;;;;12.71;90.88;96590.41;30001;982;1864;-61
2022/06/08 02:37:25;;;;;;;;;;;;;;;12.71;91.14;96579.50;30001;983;1854;-65
2022/06/08 02:38:01;;;;;;;;;;;;;;;12.71;90.97;96584.97;30001;983;1859;-65
2022/06/08 02:38:39;;;;;;;;;;;;;;;12.70;90.80;96577.09;30001;983;1868;-62
2022/06/08 02:39:14;;;;;;;;;;;;;;;12.71;90.70;96584.97;30001;983;1877;-64
2022/06/08 02:40:10;;;;;;;;;;;;;;;12.70;91.04;96577.91;30001;983;1877;-62
2022/06/08 02:40:45;;;;;;;;;;;;;;;12.70;90.53;96579.81;30001;983;1872;-65
2022/06/08 02:41:18;;;;;;;;;;;;;;;12.70;90.75;96577.91;30001;983;1877;-63
2022/06/08 02:41:52;;;;;;;;;;;;;;;12.68;90.42;96580.13;30001;982;1877;-63
2022/06/08 02:42:27;;;;;;;;;;;;;;;12.67;90.59;96578.53;30001;982;1877;-64
2022/06/08 02:43:00;;;;;;;;;;;;;;;12.68;90.35;96579.34;30001;982;1864;-63
2022/06/08 02:43:47;;;;;;;;;;;;;;;12.66;90.40;96582.38;30001;982;1868;-64
2022/06/08 02:44:21;;;;;;;;;;;;;;;12.65;90.48;96577.25;30001;983;1863;-64
2022/06/08 02:44:54;;;;;;;;;;;;;;;12.64;90.80;96573.72;30001;983;1867;-65
2022/06/08 02:45:35;;;;;;;;;;;;;;;12.64;90.69;96573.72;30001;983;1877;-64
2022/06/08 02:46:17;;;;;;;;;;;;;;;12.64;90.80;96578.34;30001;983;1863;-52
2022/06/08 02:47:10;;;;;;;;;;;;;;;12.62;90.91;96570.50;30001;983;1868;-65
2022/06/08 02:47:43;;;;;;;;;;;;;;;12.64;91.15;96581.88;30001;983;1872;-63
2022/06/08 02:48:14;;;;;;;;;;;;;;;12.64;90.69;96578.34;30001;983;1877;-65
2022/06/08 02:48:45;;;;;;;;;;;;;;;12.62;90.32;96578.66;30001;982;1877;-64
2022/06/08 02:49:16;;;;;;;;;;;;;;;12.62;90.23;96575.12;30001;982;1877;-65
2022/06/08 02:49:47;;;;;;;;;;;;;;;12.62;90.30;96575.94;30001;982;1877;-65
2022/06/08 02:50:20;;;;;;;;;;;;;;;12.62;90.24;96584.09;30001;982;1877;-65
2022/06/08 02:50:53;;;;;;;;;;;;;;;12.61;90.33;96579.78;30001;982;1864;-65
2022/06/08 02:51:26;;;;;;;;;;;;;;;12.61;90.22;96574.34;30001;982;1869;-64
2022/06/08 02:52:00;;;;;;;;;;;;;;;12.60;90.02;96572.72;30001;983;1876;-65
2022/06/08 02:52:32;;;;;;;;;;;;;;;12.60;90.20;96580.09;30001;983;1863;-65
2022/06/08 02:53:26;;;;;;;;;;;;;;;12.59;89.90;96576.56;30001;983;1868;-65
2022/06/08 02:53:58;;;;;;;;;;;;;;;12.61;89.78;96578.97;30001;983;1872;-63
2022/06/08 02:54:29;;;;;;;;;;;;;;;12.61;90.00;96573.53;30001;983;1877;-55
2022/06/08 02:55:00;;;;;;;;;;;;;;;12.60;89.72;96577.38;30001;983;1877;-65
2022/06/08 02:55:46;;;;;;;;;;;;;;;12.61;89.66;96568.09;30001;983;1877;-66
2022/06/08 02:56:34;;;;;;;;;;;;;;;12.59;89.54;96565.69;30001;982;1864;-66
2022/06/08 02:57:23;;;;;;;;;;;;;;;12.60;89.80;96567.28;30001;982;1868;-65
2022/06/08 02:57:58;;;;;;;;;;;;;;;12.61;89.31;96574.34;30001;982;1877;-52
2022/06/08 02:58:34;;;;;;;;;;;;;;;12.61;89.57;96568.88;30001;982;1878;-66
2022/06/08 02:59:31;;;;;;;;;;;;;;;12.62;89.07;96570.50;30001;982;1877;-64
2022/06/08 03:00:34;;;;;;;;;;;;;;;12.63;89.19;96571.31;30001;983;1859;-52
2022/06/08 03:01:12;;;;;;;;;;;;;;;12.62;88.71;96565.06;30001;983;1864;-65
2022/06/08 03:01:46;;;;;;;;;;;;;;;12.61;89.08;96563.44;30001;983;1877;-66
2022/06/08 03:02:24;;;;;;;;;;;;;;;12.63;88.98;96566.66;30001;983;1877;-63
2022/06/08 03:02:59;;;;;;;;;;;;;;;12.62;89.04;96570.50;30001;983;1877;-65
2022/06/08 03:03:41;;;;;;;;;;;;;;;12.63;88.76;96566.66;30001;982;1864;-63
2022/06/08 03:04:15;;;;;;;;;;;;;;;12.61;88.76;96558.00;30001;982;1868;-65
2022/06/08 03:04:49;;;;;;;;;;;;;;;12.60;88.54;96556.41;30001;982;1877;-65
2022/06/08 03:05:30;;;;;;;;;;;;;;;12.60;88.94;96567.28;30001;982;1877;-64
2022/06/08 03:06:07;;;;;;;;;;;;;;;12.61;88.41;96563.44;30001;982;1877;-67
2022/06/08 03:06:43;;;;;;;;;;;;;;;12.60;88.83;96559.12;30001;982;1877;-65
2022/06/08 03:07:16;;;;;;;;;;;;;;;12.60;88.99;96556.41;30001;983;1876;-63
2022/06/08 03:07:51;;;;;;;;;;;;;;;12.60;89.23;96559.12;30001;983;1863;-65
2022/06/08 03:08:25;;;;;;;;;;;;;;;12.59;89.20;96554.78;30001;983;1868;-63
2022/06/08 03:08:58;;;;;;;;;;;;;;;12.60;89.36;96550.16;30001;983;1877;-66
2022/06/08 03:09:30;;;;;;;;;;;;;;;12.58;89.44;96553.19;30001;983;1877;-65
2022/06/08 03:10:04;;;;;;;;;;;;;;;12.55;89.52;96548.37;30001;983;1877;-64
2022/06/08 03:10:37;;;;;;;;;;;;;;;12.55;89.33;96551.09;30001;983;1877;-65
2022/06/08 03:11:09;;;;;;;;;;;;;;;12.54;89.59;96552.19;30001;982;1877;-65
2022/06/08 03:11:45;;;;;;;;;;;;;;;12.56;89.35;96554.63;30001;982;1877;-63
2022/06/08 03:12:30;;;;;;;;;;;;;;;12.54;89.18;96544.03;30001;982;1864;-64
2022/06/08 03:13:08;;;;;;;;;;;;;;;12.55;89.32;96553.00;30001;982;1869;-53
2022/06/08 03:13:59;;;;;;;;;;;;;;;12.55;89.36;96548.37;30001;982;1877;-64
2022/06/08 03:14:30;;;;;;;;;;;;;;;12.55;89.15;96553.00;30001;965;1787;-64
2022/06/08 03:15:02;;;;;;;;;;;;;;;12.55;88.82;96556.53;30001;983;1876;-65
2022/06/08 03:15:34;;;;;;;;;;;;;;;12.55;89.03;96553.81;30001;983;1877;-65
2022/06/08 03:16:06;;;;;;;;;;;;;;;12.56;89.04;96555.41;30001;983;1864;-66
2022/06/08 03:16:39;;;;;;;;;;;;;;;12.57;89.12;96548.84;30001;983;1868;-66
2022/06/08 03:17:11;;;;;;;;;;;;;;;12.57;88.28;96551.56;30001;983;1877;-65
2022/06/08 03:17:47;;;;;;;;;;;;;;;12.58;88.51;96547.75;30001;983;1877;-64
2022/06/08 03:18:18;;;;;;;;;;;;;;;12.58;88.50;96547.75;30001;983;1877;-65
2022/06/08 03:18:48;;;;;;;;;;;;;;;12.60;88.34;96550.16;30001;982;1877;-65
2022/06/08 03:19:20;;;;;;;;;;;;;;;12.60;88.62;96545.50;30001;982;1877;-64
2022/06/08 03:19:50;;;;;;;;;;;;;;;12.61;88.66;96551.75;30001;982;1864;-65
2022/06/08 03:20:22;;;;;;;;;;;;;;;12.60;88.70;96545.50;30001;982;1869;-65
2022/06/08 03:20:53;;;;;;;;;;;;;;;12.60;88.55;96550.94;30001;982;1877;-52
2022/06/08 03:21:25;;;;;;;;;;;;;;;12.63;88.96;96550.31;30001;983;1876;-64
2022/06/08 03:21:57;;;;;;;;;;;;;;;12.64;88.98;96551.94;30001;983;1876;-52
2022/06/08 03:22:28;;;;;;;;;;;;;;;12.62;88.44;96546.00;30001;983;1877;-63
2022/06/08 03:22:59;;;;;;;;;;;;;;;12.62;87.96;96548.72;30001;983;1877;-64